Aviation Digital Data Service (ADDS)

Output produced by METARs form (0454 UTC 16 February 2019)
found at http://www.aviationweather.gov/metar/data/
 
Forecast for: LQMO (MOSTAR AIRPORT , BA)
Text: TAF LQMO 152300Z 1600/1624 35005KT CAVOK TX15/1613Z TNM01/1605Z
Forecast period: 0000 UTC 16 February 2019 to 0000 UTC 17 February 2019
Forecast type: FROM: standard forecast or significant change
Winds: from the N (350 degrees) at 6 MPH (5 knots; 2.6 m/s)
Visibility: 6 or more miles 10+ km)
Ceiling: unknown
Clouds: missing
Weather: no significant weather forecast for this period